sensor_id;sensor_type;location;lat;lon;timestamp;temperature;humidity
40630;DHT22;26329;40.388;-3.710;2023-05-02T00:04:54;20.70;27.40
40630;DHT22;26329;40.388;-3.710;2023-05-02T00:14:55;20.60;27.40
40630;DHT22;26329;40.388;-3.710;2023-05-02T00:24:57;20.40;27.20
40630;DHT22;26329;40.388;-3.710;2023-05-02T00:34:58;20.30;27.40
40630;DHT22;26329;40.388;-3.710;2023-05-02T00:45:01;20.00;28.60
40630;DHT22;26329;40.388;-3.710;2023-05-02T00:55:02;19.70;31.40
40630;DHT22;26329;40.388;-3.710;2023-05-02T01:05:13;19.00;33.60
40630;DHT22;26329;40.388;-3.710;2023-05-02T01:15:18;18.60;34.20
40630;DHT22;26329;40.388;-3.710;2023-05-02T01:35:33;18.10;35.30
40630;DHT22;26329;40.388;-3.710;2023-05-02T01:45:37;17.80;35.60
40630;DHT22;26329;40.388;-3.710;2023-05-02T01:55:41;17.50;36.10
40630;DHT22;26329;40.388;-3.710;2023-05-02T02:05:44;17.40;36.80
40630;DHT22;26329;40.388;-3.710;2023-05-02T02:15:49;17.30;36.70
40630;DHT22;26329;40.388;-3.710;2023-05-02T02:25:51;17.40;36.70
40630;DHT22;26329;40.388;-3.710;2023-05-02T02:36:00;17.60;36.40
40630;DHT22;26329;40.388;-3.710;2023-05-02T02:56:25;17.60;37.60
40630;DHT22;26329;40.388;-3.710;2023-05-02T03:06:28;17.30;38.40
40630;DHT22;26329;40.388;-3.710;2023-05-02T03:16:34;17.10;39.30
40630;DHT22;26329;40.388;-3.710;2023-05-02T03:26:36;16.80;39.30
40630;DHT22;26329;40.388;-3.710;2023-05-02T03:36:38;16.30;39.30
40630;DHT22;26329;40.388;-3.710;2023-05-02T03:46:39;16.10;39.90
40630;DHT22;26329;40.388;-3.710;2023-05-02T03:56:40;16.20;40.20
40630;DHT22;26329;40.388;-3.710;2023-05-02T04:06:44;16.20;40.40
40630;DHT22;26329;40.388;-3.710;2023-05-02T04:16:49;16.10;40.60
40630;DHT22;26329;40.388;-3.710;2023-05-02T04:26:50;16.10;41.00
40630;DHT22;26329;40.388;-3.710;2023-05-02T04:36:52;15.70;40.90
40630;DHT22;26329;40.388;-3.710;2023-05-02T04:46:53;15.60;41.10
40630;DHT22;26329;40.388;-3.710;2023-05-02T04:56:55;15.30;41.90
40630;DHT22;26329;40.388;-3.710;2023-05-02T05:06:56;15.20;42.70
40630;DHT22;26329;40.388;-3.710;2023-05-02T05:16:58;15.10;42.90
40630;DHT22;26329;40.388;-3.710;2023-05-02T05:26:59;15.20;42.80
40630;DHT22;26329;40.388;-3.710;2023-05-02T05:37:01;15.10;42.80
40630;DHT22;26329;40.388;-3.710;2023-05-02T05:47:02;14.80;43.50
40630;DHT22;26329;40.388;-3.710;2023-05-02T05:57:03;14.90;43.70
40630;DHT22;26329;40.388;-3.710;2023-05-02T06:07:05;15.00;43.40
40630;DHT22;26329;40.388;-3.710;2023-05-02T06:17:06;15.20;43.30
40630;DHT22;26329;40.388;-3.710;2023-05-02T06:27:07;15.30;42.70
40630;DHT22;26329;40.388;-3.710;2023-05-02T06:37:09;15.40;42.90
40630;DHT22;26329;40.388;-3.710;2023-05-02T06:47:11;16.20;42.00
40630;DHT22;26329;40.388;-3.710;2023-05-02T06:57:12;16.80;40.40
40630;DHT22;26329;40.388;-3.710;2023-05-02T07:07:13;17.20;39.70
40630;DHT22;26329;40.388;-3.710;2023-05-02T07:17:18;17.70;37.60
40630;DHT22;26329;40.388;-3.710;2023-05-02T07:27:20;18.70;34.30
40630;DHT22;26329;40.388;-3.710;2023-05-02T07:37:21;19.50;31.20
40630;DHT22;26329;40.388;-3.710;2023-05-02T07:47:23;20.20;28.30
40630;DHT22;26329;40.388;-3.710;2023-05-02T07:57:25;20.50;27.70
40630;DHT22;26329;40.388;-3.710;2023-05-02T08:07:27;20.80;27.30
40630;DHT22;26329;40.388;-3.710;2023-05-02T08:17:28;21.20;27.40
40630;DHT22;26329;40.388;-3.710;2023-05-02T08:27:29;21.50;25.00
40630;DHT22;26329;40.388;-3.710;2023-05-02T08:37:30;21.80;24.10
40630;DHT22;26329;40.388;-3.710;2023-05-02T08:47:32;22.10;24.30
40630;DHT22;26329;40.388;-3.710;2023-05-02T08:57:34;22.30;23.80
40630;DHT22;26329;40.388;-3.710;2023-05-02T09:07:46;22.40;24.60
40630;DHT22;26329;40.388;-3.710;2023-05-02T09:17:48;22.70;24.10
40630;DHT22;26329;40.388;-3.710;2023-05-02T09:27:53;23.20;24.00
40630;DHT22;26329;40.388;-3.710;2023-05-02T09:37:57;23.20;23.80
40630;DHT22;26329;40.388;-3.710;2023-05-02T09:48:01;23.30;23.70
40630;DHT22;26329;40.388;-3.710;2023-05-02T09:58:02;23.40;23.40
40630;DHT22;26329;40.388;-3.710;2023-05-02T10:08:07;23.60;23.40
40630;DHT22;26329;40.388;-3.710;2023-05-02T10:18:16;23.80;22.60
40630;DHT22;26329;40.388;-3.710;2023-05-02T10:28:21;24.20;23.40
40630;DHT22;26329;40.388;-3.710;2023-05-02T10:38:22;24.40;21.10
40630;DHT22;26329;40.388;-3.710;2023-05-02T10:48:25;24.40;19.50
40630;DHT22;26329;40.388;-3.710;2023-05-02T10:58:26;24.70;19.30
40630;DHT22;26329;40.388;-3.710;2023-05-02T11:18:58;25.10;21.20
40630;DHT22;26329;40.388;-3.710;2023-05-02T11:29:00;25.00;20.70
40630;DHT22;26329;40.388;-3.710;2023-05-02T11:39:03;25.10;20.60
40630;DHT22;26329;40.388;-3.710;2023-05-02T11:49:06;25.40;20.90
40630;DHT22;26329;40.388;-3.710;2023-05-02T11:59:13;25.90;20.00
40630;DHT22;26329;40.388;-3.710;2023-05-02T12:09:14;25.90;20.60
40630;DHT22;26329;40.388;-3.710;2023-05-02T12:19:20;26.10;21.00
40630;DHT22;26329;40.388;-3.710;2023-05-02T12:29:43;26.20;20.80
40630;DHT22;26329;40.388;-3.710;2023-05-02T12:39:45;26.40;21.10
40630;DHT22;26329;40.388;-3.710;2023-05-02T12:59:53;26.80;21.40
40630;DHT22;26329;40.388;-3.710;2023-05-02T13:09:55;26.80;21.00
40630;DHT22;26329;40.388;-3.710;2023-05-02T13:19:56;26.80;20.30
40630;DHT22;26329;40.388;-3.710;2023-05-02T13:29:57;26.90;20.40
40630;DHT22;26329;40.388;-3.710;2023-05-02T13:39:59;26.90;20.60
40630;DHT22;26329;40.388;-3.710;2023-05-02T13:50:00;27.00;20.00
40630;DHT22;26329;40.388;-3.710;2023-05-02T14:00:01;27.50;20.10
40630;DHT22;26329;40.388;-3.710;2023-05-02T14:10:04;27.70;19.00
40630;DHT22;26329;40.388;-3.710;2023-05-02T14:20:06;27.80;19.00
40630;DHT22;26329;40.388;-3.710;2023-05-02T14:30:10;27.90;19.60
40630;DHT22;26329;40.388;-3.710;2023-05-02T14:40:12;28.10;19.60
40630;DHT22;26329;40.388;-3.710;2023-05-02T14:50:14;28.00;19.60
40630;DHT22;26329;40.388;-3.710;2023-05-02T15:00:15;27.80;19.60
40630;DHT22;26329;40.388;-3.710;2023-05-02T15:10:17;27.90;20.00
40630;DHT22;26329;40.388;-3.710;2023-05-02T15:20:18;27.90;19.50
40630;DHT22;26329;40.388;-3.710;2023-05-02T15:30:20;27.90;19.30
40630;DHT22;26329;40.388;-3.710;2023-05-02T15:40:21;28.00;19.80
40630;DHT22;26329;40.388;-3.710;2023-05-02T15:50:22;27.90;20.00
40630;DHT22;26329;40.388;-3.710;2023-05-02T16:00:24;28.00;20.10
40630;DHT22;26329;40.388;-3.710;2023-05-02T16:10:26;28.20;19.60
40630;DHT22;26329;40.388;-3.710;2023-05-02T16:20:27;28.20;19.40
40630;DHT22;26329;40.388;-3.710;2023-05-02T16:30:29;28.10;20.00
40630;DHT22;26329;40.388;-3.710;2023-05-02T16:40:30;27.90;19.80
40630;DHT22;26329;40.388;-3.710;2023-05-02T16:50:31;27.70;20.10
40630;DHT22;26329;40.388;-3.710;2023-05-02T17:00:33;27.70;19.30
40630;DHT22;26329;40.388;-3.710;2023-05-02T17:10:34;27.60;19.60
40630;DHT22;26329;40.388;-3.710;2023-05-02T17:20:36;27.60;19.50
40630;DHT22;26329;40.388;-3.710;2023-05-02T17:30:38;27.60;19.60
40630;DHT22;26329;40.388;-3.710;2023-05-02T17:40:40;27.50;20.00
40630;DHT22;26329;40.388;-3.710;2023-05-02T17:50:42;27.40;20.50
40630;DHT22;26329;40.388;-3.710;2023-05-02T18:00:44;27.20;20.50
40630;DHT22;26329;40.388;-3.710;2023-05-02T18:10:45;27.10;20.80
40630;DHT22;26329;40.388;-3.710;2023-05-02T18:20:47;26.90;21.10
40630;DHT22;26329;40.388;-3.710;2023-05-02T18:30:49;26.70;21.20
40630;DHT22;26329;40.388;-3.710;2023-05-02T18:40:50;26.60;21.40
40630;DHT22;26329;40.388;-3.710;2023-05-02T18:50:55;26.40;21.80
40630;DHT22;26329;40.388;-3.710;2023-05-02T19:00:56;26.20;22.20
40630;DHT22;26329;40.388;-3.710;2023-05-02T19:10:58;26.00;22.20
40630;DHT22;26329;40.388;-3.710;2023-05-02T19:21:07;25.90;22.50
40630;DHT22;26329;40.388;-3.710;2023-05-02T19:31:12;25.70;22.40
40630;DHT22;26329;40.388;-3.710;2023-05-02T19:41:14;25.50;22.60
40630;DHT22;26329;40.388;-3.710;2023-05-02T19:51:18;25.40;23.20
40630;DHT22;26329;40.388;-3.710;2023-05-02T20:01:25;25.30;23.60
40630;DHT22;26329;40.388;-3.710;2023-05-02T20:11:29;25.10;24.10
40630;DHT22;26329;40.388;-3.710;2023-05-02T20:21:32;24.90;25.20
40630;DHT22;26329;40.388;-3.710;2023-05-02T20:31:34;24.60;26.60
40630;DHT22;26329;40.388;-3.710;2023-05-02T20:41:35;24.50;27.20
40630;DHT22;26329;40.388;-3.710;2023-05-02T20:51:37;24.20;27.60
40630;DHT22;26329;40.388;-3.710;2023-05-02T21:01:38;24.10;27.80
40630;DHT22;26329;40.388;-3.710;2023-05-02T21:11:39;23.80;29.00
40630;DHT22;26329;40.388;-3.710;2023-05-02T21:21:41;23.60;29.50
40630;DHT22;26329;40.388;-3.710;2023-05-02T21:31:43;23.20;30.40
40630;DHT22;26329;40.388;-3.710;2023-05-02T21:41:44;23.10;30.70
40630;DHT22;26329;40.388;-3.710;2023-05-02T21:51:46;22.80;30.80
40630;DHT22;26329;40.388;-3.710;2023-05-02T22:01:47;22.70;31.00
40630;DHT22;26329;40.388;-3.710;2023-05-02T22:11:49;22.60;31.80
40630;DHT22;26329;40.388;-3.710;2023-05-02T22:21:50;22.20;32.50
40630;DHT22;26329;40.388;-3.710;2023-05-02T22:31:52;21.90;33.10
40630;DHT22;26329;40.388;-3.710;2023-05-02T22:41:53;21.70;33.80
40630;DHT22;26329;40.388;-3.710;2023-05-02T22:51:55;21.50;34.00
40630;DHT22;26329;40.388;-3.710;2023-05-02T23:01:59;21.30;34.40
40630;DHT22;26329;40.388;-3.710;2023-05-02T23:12:00;21.00;35.30
40630;DHT22;26329;40.388;-3.710;2023-05-02T23:22:03;20.80;35.40
40630;DHT22;26329;40.388;-3.710;2023-05-02T23:32:05;20.70;35.90
40630;DHT22;26329;40.388;-3.710;2023-05-02T23:42:08;20.30;36.40
40630;DHT22;26329;40.388;-3.710;2023-05-02T23:52:09;20.30;36.50
